sensor_id;sensor_type;location;lat;lon;timestamp;temperature;humidity
21540;DHT22;10931;52.164;5.518;2022-12-18T00:01:57;13.10;57.60
21540;DHT22;10931;52.164;5.518;2022-12-18T00:04:30;13.10;57.60
21540;DHT22;10931;52.164;5.518;2022-12-18T00:13:04;13.00;57.60
21540;DHT22;10931;52.164;5.518;2022-12-18T00:15:52;13.00;57.50
21540;DHT22;10931;52.164;5.518;2022-12-18T00:18:36;13.00;57.60
21540;DHT22;10931;52.164;5.518;2022-12-18T00:21:18;13.00;57.60
21540;DHT22;10931;52.164;5.518;2022-12-18T00:23:52;13.00;57.60
21540;DHT22;10931;52.164;5.518;2022-12-18T00:26:36;13.00;57.60
21540;DHT22;10931;52.164;5.518;2022-12-18T00:29:15;13.00;57.50
21540;DHT22;10931;52.164;5.518;2022-12-18T00:31:52;13.00;57.60
21540;DHT22;10931;52.164;5.518;2022-12-18T00:34:20;13.00;57.50
21540;DHT22;10931;52.164;5.518;2022-12-18T00:37:11;13.00;57.60
21540;DHT22;10931;52.164;5.518;2022-12-18T00:43:14;13.00;57.60
21540;DHT22;10931;52.164;5.518;2022-12-18T00:46:15;13.00;57.60
21540;DHT22;10931;52.164;5.518;2022-12-18T00:48:56;13.00;57.60
21540;DHT22;10931;52.164;5.518;2022-12-18T00:51:40;13.00;57.60
21540;DHT22;10931;52.164;5.518;2022-12-18T00:54:29;12.90;57.50
21540;DHT22;10931;52.164;5.518;2022-12-18T00:57:20;13.00;57.60
21540;DHT22;10931;52.164;5.518;2022-12-18T00:59:51;13.00;57.60
21540;DHT22;10931;52.164;5.518;2022-12-18T01:02:43;12.90;57.50
21540;DHT22;10931;52.164;5.518;2022-12-18T01:05:20;12.90;57.50
21540;DHT22;10931;52.164;5.518;2022-12-18T01:11:29;12.90;57.50
21540;DHT22;10931;52.164;5.518;2022-12-18T01:13:58;12.90;57.50
21540;DHT22;10931;52.164;5.518;2022-12-18T01:17:05;12.90;57.50
21540;DHT22;10931;52.164;5.518;2022-12-18T01:22:56;12.90;57.50
21540;DHT22;10931;52.164;5.518;2022-12-18T01:40:08;12.80;57.50
21540;DHT22;10931;52.164;5.518;2022-12-18T01:42:39;12.80;57.50
21540;DHT22;10931;52.164;5.518;2022-12-18T01:52:36;12.80;57.50
21540;DHT22;10931;52.164;5.518;2022-12-18T01:59:19;12.80;57.50
21540;DHT22;10931;52.164;5.518;2022-12-18T02:01:55;12.80;57.50
21540;DHT22;10931;52.164;5.518;2022-12-18T02:11:09;12.80;57.50
21540;DHT22;10931;52.164;5.518;2022-12-18T02:23:27;12.70;57.50
21540;DHT22;10931;52.164;5.518;2022-12-18T02:29:09;12.70;57.50
21540;DHT22;10931;52.164;5.518;2022-12-18T02:32:08;12.70;57.50
21540;DHT22;10931;52.164;5.518;2022-12-18T02:34:51;12.70;57.50
21540;DHT22;10931;52.164;5.518;2022-12-18T02:37:51;12.70;57.50
21540;DHT22;10931;52.164;5.518;2022-12-18T02:40:25;12.70;57.50
21540;DHT22;10931;52.164;5.518;2022-12-18T02:43:24;12.70;57.50
21540;DHT22;10931;52.164;5.518;2022-12-18T02:49:02;12.70;57.50
21540;DHT22;10931;52.164;5.518;2022-12-18T02:51:38;12.70;57.50
21540;DHT22;10931;52.164;5.518;2022-12-18T02:54:39;12.70;57.50
21540;DHT22;10931;52.164;5.518;2022-12-18T02:58:05;12.60;57.50
21540;DHT22;10931;52.164;5.518;2022-12-18T03:06:07;12.60;57.50
21540;DHT22;10931;52.164;5.518;2022-12-18T03:08:48;12.60;57.50
21540;DHT22;10931;52.164;5.518;2022-12-18T03:11:15;12.60;57.50
21540;DHT22;10931;52.164;5.518;2022-12-18T03:14:07;12.60;57.50
21540;DHT22;10931;52.164;5.518;2022-12-18T03:16:41;12.60;57.50
21540;DHT22;10931;52.164;5.518;2022-12-18T03:19:34;12.60;57.50
21540;DHT22;10931;52.164;5.518;2022-12-18T03:22:12;12.60;57.50
21540;DHT22;10931;52.164;5.518;2022-12-18T03:24:44;12.60;57.50
21540;DHT22;10931;52.164;5.518;2022-12-18T03:27:31;12.60;57.50
21540;DHT22;10931;52.164;5.518;2022-12-18T03:30:17;12.60;57.50
21540;DHT22;10931;52.164;5.518;2022-12-18T03:32:58;12.60;57.50
21540;DHT22;10931;52.164;5.518;2022-12-18T03:35:36;12.50;57.50
21540;DHT22;10931;52.164;5.518;2022-12-18T03:38:18;12.50;57.40
21540;DHT22;10931;52.164;5.518;2022-12-18T03:44:29;12.50;57.40
21540;DHT22;10931;52.164;5.518;2022-12-18T03:50:13;12.50;57.40
21540;DHT22;10931;52.164;5.518;2022-12-18T03:56:01;12.50;57.40
21540;DHT22;10931;52.164;5.518;2022-12-18T03:58:43;12.50;57.40
21540;DHT22;10931;52.164;5.518;2022-12-18T04:08:29;12.40;57.40
21540;DHT22;10931;52.164;5.518;2022-12-18T04:22:34;12.40;57.40
21540;DHT22;10931;52.164;5.518;2022-12-18T04:25:03;12.40;57.40
21540;DHT22;10931;52.164;5.518;2022-12-18T04:27:50;12.40;57.40
21540;DHT22;10931;52.164;5.518;2022-12-18T04:30:20;12.40;57.40
21540;DHT22;10931;52.164;5.518;2022-12-18T04:33:05;12.40;57.40
21540;DHT22;10931;52.164;5.518;2022-12-18T04:35:56;12.30;57.30
21540;DHT22;10931;52.164;5.518;2022-12-18T04:38:29;12.40;57.40
21540;DHT22;10931;52.164;5.518;2022-12-18T04:40:54;12.30;57.30
21540;DHT22;10931;52.164;5.518;2022-12-18T04:43:23;12.30;57.30
21540;DHT22;10931;52.164;5.518;2022-12-18T04:59:00;12.30;57.30
21540;DHT22;10931;52.164;5.518;2022-12-18T05:01:30;12.30;57.40
21540;DHT22;10931;52.164;5.518;2022-12-18T05:03:59;12.30;57.30
21540;DHT22;10931;52.164;5.518;2022-12-18T05:06:29;12.30;57.40
21540;DHT22;10931;52.164;5.518;2022-12-18T05:09:09;12.30;57.40
21540;DHT22;10931;52.164;5.518;2022-12-18T05:11:49;12.30;57.30
21540;DHT22;10931;52.164;5.518;2022-12-18T05:14:37;12.20;57.30
21540;DHT22;10931;52.164;5.518;2022-12-18T05:17:07;12.20;57.30
21540;DHT22;10931;52.164;5.518;2022-12-18T05:19:36;12.20;57.30
21540;DHT22;10931;52.164;5.518;2022-12-18T05:22:27;12.20;57.30
21540;DHT22;10931;52.164;5.518;2022-12-18T05:25:07;12.20;57.30
21540;DHT22;10931;52.164;5.518;2022-12-18T05:27:48;12.20;57.30
21540;DHT22;10931;52.164;5.518;2022-12-18T05:30:37;12.20;57.30
21540;DHT22;10931;52.164;5.518;2022-12-18T05:36:27;12.20;57.30
21540;DHT22;10931;52.164;5.518;2022-12-18T05:38:57;12.20;57.30
21540;DHT22;10931;52.164;5.518;2022-12-18T05:41:27;12.20;57.30
21540;DHT22;10931;52.164;5.518;2022-12-18T05:43:55;12.20;57.30
21540;DHT22;10931;52.164;5.518;2022-12-18T05:46:25;12.10;57.20
21540;DHT22;10931;52.164;5.518;2022-12-18T05:48:58;12.10;57.20
21540;DHT22;10931;52.164;5.518;2022-12-18T05:54:23;12.10;57.20
21540;DHT22;10931;52.164;5.518;2022-12-18T05:57:22;12.10;57.30
21540;DHT22;10931;52.164;5.518;2022-12-18T05:59:53;12.10;57.20
21540;DHT22;10931;52.164;5.518;2022-12-18T06:02:29;12.10;57.20
21540;DHT22;10931;52.164;5.518;2022-12-18T06:05:24;12.00;57.20
21540;DHT22;10931;52.164;5.518;2022-12-18T06:08:38;12.00;57.20
21540;DHT22;10931;52.164;5.518;2022-12-18T06:12:01;12.10;57.20
21540;DHT22;10931;52.164;5.518;2022-12-18T06:14:33;12.10;57.30
21540;DHT22;10931;52.164;5.518;2022-12-18T06:17:08;12.10;57.20
21540;DHT22;10931;52.164;5.518;2022-12-18T06:19:41;12.00;57.10
21540;DHT22;10931;52.164;5.518;2022-12-18T06:22:11;12.00;57.20
21540;DHT22;10931;52.164;5.518;2022-12-18T06:25:02;12.00;57.20
21540;DHT22;10931;52.164;5.518;2022-12-18T06:27:42;12.00;57.20
21540;DHT22;10931;52.164;5.518;2022-12-18T06:30:16;12.00;57.20
21540;DHT22;10931;52.164;5.518;2022-12-18T06:33:02;12.00;57.20
21540;DHT22;10931;52.164;5.518;2022-12-18T06:35:35;12.00;57.20
21540;DHT22;10931;52.164;5.518;2022-12-18T06:38:22;12.00;57.20
21540;DHT22;10931;52.164;5.518;2022-12-18T06:40:55;12.00;57.20
21540;DHT22;10931;52.164;5.518;2022-12-18T06:43:37;12.00;57.20
21540;DHT22;10931;52.164;5.518;2022-12-18T06:46:28;11.90;57.10
21540;DHT22;10931;52.164;5.518;2022-12-18T06:49:00;11.90;57.10
21540;DHT22;10931;52.164;5.518;2022-12-18T06:55:00;11.90;57.10
21540;DHT22;10931;52.164;5.518;2022-12-18T06:57:46;11.90;57.10
21540;DHT22;10931;52.164;5.518;2022-12-18T07:00:25;11.90;57.10
21540;DHT22;10931;52.164;5.518;2022-12-18T07:03:23;11.90;57.10
21540;DHT22;10931;52.164;5.518;2022-12-18T07:06:18;11.90;57.10
21540;DHT22;10931;52.164;5.518;2022-12-18T07:08:58;11.80;57.10
21540;DHT22;10931;52.164;5.518;2022-12-18T07:11:53;11.80;57.10
21540;DHT22;10931;52.164;5.518;2022-12-18T07:14:29;11.80;57.10
21540;DHT22;10931;52.164;5.518;2022-12-18T07:17:16;11.80;57.10
21540;DHT22;10931;52.164;5.518;2022-12-18T07:20:10;11.80;57.10
21540;DHT22;10931;52.164;5.518;2022-12-18T07:22:55;11.80;57.10
21540;DHT22;10931;52.164;5.518;2022-12-18T07:25:38;11.80;57.10
21540;DHT22;10931;52.164;5.518;2022-12-18T07:28:29;11.80;57.10
21540;DHT22;10931;52.164;5.518;2022-12-18T07:33:35;11.80;57.10
21540;DHT22;10931;52.164;5.518;2022-12-18T07:36:13;11.80;57.10
21540;DHT22;10931;52.164;5.518;2022-12-18T07:38:48;11.80;57.10
21540;DHT22;10931;52.164;5.518;2022-12-18T07:41:22;11.70;57.00
21540;DHT22;10931;52.164;5.518;2022-12-18T07:43:57;11.70;57.00
21540;DHT22;10931;52.164;5.518;2022-12-18T07:46:57;11.70;57.00
21540;DHT22;10931;52.164;5.518;2022-12-18T07:49:44;11.70;57.00
21540;DHT22;10931;52.164;5.518;2022-12-18T07:52:26;11.70;57.00
21540;DHT22;10931;52.164;5.518;2022-12-18T07:55:21;11.70;57.00
21540;DHT22;10931;52.164;5.518;2022-12-18T07:58:10;11.70;57.00
21540;DHT22;10931;52.164;5.518;2022-12-18T08:00:36;11.70;57.00
21540;DHT22;10931;52.164;5.518;2022-12-18T08:03:02;11.70;57.00
21540;DHT22;10931;52.164;5.518;2022-12-18T08:05:28;11.70;57.00
21540;DHT22;10931;52.164;5.518;2022-12-18T08:07:56;11.60;57.00
21540;DHT22;10931;52.164;5.518;2022-12-18T08:10:57;11.70;57.00
21540;DHT22;10931;52.164;5.518;2022-12-18T08:13:31;11.60;57.00
21540;DHT22;10931;52.164;5.518;2022-12-18T08:16:07;11.60;57.00
21540;DHT22;10931;52.164;5.518;2022-12-18T08:18:36;11.60;57.00
21540;DHT22;10931;52.164;5.518;2022-12-18T08:21:32;11.60;57.00
21540;DHT22;10931;52.164;5.518;2022-12-18T08:24:11;11.60;57.00
21540;DHT22;10931;52.164;5.518;2022-12-18T08:26:39;11.60;57.00
21540;DHT22;10931;52.164;5.518;2022-12-18T08:29:42;11.60;57.00
21540;DHT22;10931;52.164;5.518;2022-12-18T08:32:22;11.60;57.00
21540;DHT22;10931;52.164;5.518;2022-12-18T08:35:08;11.60;57.00
21540;DHT22;10931;52.164;5.518;2022-12-18T08:37:48;11.60;57.00
21540;DHT22;10931;52.164;5.518;2022-12-18T08:40:18;11.60;57.00
21540;DHT22;10931;52.164;5.518;2022-12-18T08:46:00;11.50;57.00
21540;DHT22;10931;52.164;5.518;2022-12-18T08:48:33;11.60;57.00
21540;DHT22;10931;52.164;5.518;2022-12-18T08:51:06;11.50;57.00
21540;DHT22;10931;52.164;5.518;2022-12-18T08:53:35;11.50;56.90
21540;DHT22;10931;52.164;5.518;2022-12-18T08:56:08;11.50;56.90
21540;DHT22;10931;52.164;5.518;2022-12-18T08:59:12;11.50;57.00
21540;DHT22;10931;52.164;5.518;2022-12-18T09:01:46;11.50;57.00
21540;DHT22;10931;52.164;5.518;2022-12-18T09:04:23;11.50;56.90
21540;DHT22;10931;52.164;5.518;2022-12-18T09:07:10;11.50;56.90
21540;DHT22;10931;52.164;5.518;2022-12-18T09:09:49;11.50;57.00
21540;DHT22;10931;52.164;5.518;2022-12-18T09:15:53;11.50;56.90
21540;DHT22;10931;52.164;5.518;2022-12-18T10:36:42;11.30;57.00
21540;DHT22;10931;52.164;5.518;2022-12-18T10:42:29;11.30;57.00
21540;DHT22;10931;52.164;5.518;2022-12-18T10:47:35;11.30;57.00
21540;DHT22;10931;52.164;5.518;2022-12-18T10:53:00;11.20;56.90
21540;DHT22;10931;52.164;5.518;2022-12-18T10:55:34;11.20;56.90
21540;DHT22;10931;52.164;5.518;2022-12-18T10:58:25;11.20;56.90
21540;DHT22;10931;52.164;5.518;2022-12-18T11:01:11;11.20;56.90
21540;DHT22;10931;52.164;5.518;2022-12-18T11:06:23;11.20;57.00
21540;DHT22;10931;52.164;5.518;2022-12-18T11:09:07;11.20;57.00
21540;DHT22;10931;52.164;5.518;2022-12-18T11:11:52;11.20;57.00
21540;DHT22;10931;52.164;5.518;2022-12-18T11:14:28;11.20;57.00
21540;DHT22;10931;52.164;5.518;2022-12-18T11:16:55;11.20;57.00
21540;DHT22;10931;52.164;5.518;2022-12-18T11:19:40;11.20;57.00
21540;DHT22;10931;52.164;5.518;2022-12-18T11:28:04;11.20;57.00
21540;DHT22;10931;52.164;5.518;2022-12-18T11:30:33;11.20;57.00
21540;DHT22;10931;52.164;5.518;2022-12-18T11:33:19;11.20;57.00
21540;DHT22;10931;52.164;5.518;2022-12-18T11:35:51;11.20;57.00
21540;DHT22;10931;52.164;5.518;2022-12-18T11:38:30;11.20;57.00
21540;DHT22;10931;52.164;5.518;2022-12-18T11:41:03;11.20;57.00
21540;DHT22;10931;52.164;5.518;2022-12-18T11:44:07;11.20;57.00
21540;DHT22;10931;52.164;5.518;2022-12-18T11:47:03;11.20;57.00
21540;DHT22;10931;52.164;5.518;2022-12-18T11:49:44;11.20;57.00
21540;DHT22;10931;52.164;5.518;2022-12-18T11:52:59;11.20;57.00
21540;DHT22;10931;52.164;5.518;2022-12-18T11:55:40;11.20;57.00
21540;DHT22;10931;52.164;5.518;2022-12-18T12:11:09;11.20;57.00
21540;DHT22;10931;52.164;5.518;2022-12-18T12:27:14;11.10;57.00
21540;DHT22;10931;52.164;5.518;2022-12-18T12:40:29;11.10;57.00
21540;DHT22;10931;52.164;5.518;2022-12-18T12:46:24;11.10;57.00
21540;DHT22;10931;52.164;5.518;2022-12-18T12:49:20;11.20;57.10
21540;DHT22;10931;52.164;5.518;2022-12-18T12:58:46;11.20;57.10
21540;DHT22;10931;52.164;5.518;2022-12-18T14:01:44;11.10;57.10
21540;DHT22;10931;52.164;5.518;2022-12-18T14:04:54;11.10;57.10
21540;DHT22;10931;52.164;5.518;2022-12-18T14:07:54;11.10;57.10
21540;DHT22;10931;52.164;5.518;2022-12-18T14:34:43;11.10;57.10
21540;DHT22;10931;52.164;5.518;2022-12-18T14:40:36;11.10;57.10
21540;DHT22;10931;52.164;5.518;2022-12-18T14:49:56;11.10;57.20
21540;DHT22;10931;52.164;5.518;2022-12-18T14:52:49;11.10;57.20
21540;DHT22;10931;52.164;5.518;2022-12-18T14:55:59;11.10;57.10
21540;DHT22;10931;52.164;5.518;2022-12-18T14:59:02;11.10;57.20
21540;DHT22;10931;52.164;5.518;2022-12-18T15:08:03;11.10;57.20
21540;DHT22;10931;52.164;5.518;2022-12-18T15:10:45;11.10;57.20
21540;DHT22;10931;52.164;5.518;2022-12-18T15:13:25;11.10;57.20
21540;DHT22;10931;52.164;5.518;2022-12-18T15:15:54;11.10;57.20
21540;DHT22;10931;52.164;5.518;2022-12-18T15:18:27;11.10;57.20
21540;DHT22;10931;52.164;5.518;2022-12-18T15:20:57;11.10;57.20
21540;DHT22;10931;52.164;5.518;2022-12-18T15:23:31;11.10;57.20
21540;DHT22;10931;52.164;5.518;2022-12-18T15:26:11;11.10;57.20
21540;DHT22;10931;52.164;5.518;2022-12-18T15:28:51;11.10;57.20
21540;DHT22;10931;52.164;5.518;2022-12-18T15:31:44;11.10;57.20
21540;DHT22;10931;52.164;5.518;2022-12-18T15:34:27;11.10;57.20
21540;DHT22;10931;52.164;5.518;2022-12-18T15:36:56;11.10;57.20
21540;DHT22;10931;52.164;5.518;2022-12-18T15:39:22;11.10;57.20
21540;DHT22;10931;52.164;5.518;2022-12-18T15:41:48;11.10;57.20
21540;DHT22;10931;52.164;5.518;2022-12-18T15:44:36;11.10;57.20
21540;DHT22;10931;52.164;5.518;2022-12-18T15:47:02;11.10;57.30
21540;DHT22;10931;52.164;5.518;2022-12-18T15:49:27;11.10;57.20
21540;DHT22;10931;52.164;5.518;2022-12-18T15:52:01;11.10;57.20
21540;DHT22;10931;52.164;5.518;2022-12-18T15:54:30;11.10;57.20
21540;DHT22;10931;52.164;5.518;2022-12-18T15:57:27;11.10;57.20
21540;DHT22;10931;52.164;5.518;2022-12-18T15:59:56;11.10;57.20
21540;DHT22;10931;52.164;5.518;2022-12-18T16:02:24;11.10;57.20
21540;DHT22;10931;52.164;5.518;2022-12-18T16:04:52;11.10;57.20
21540;DHT22;10931;52.164;5.518;2022-12-18T16:07:19;11.10;57.20
21540;DHT22;10931;52.164;5.518;2022-12-18T16:09:48;11.00;57.20
21540;DHT22;10931;52.164;5.518;2022-12-18T16:12:19;11.10;57.20
21540;DHT22;10931;52.164;5.518;2022-12-18T16:14:49;11.10;57.30
21540;DHT22;10931;52.164;5.518;2022-12-18T16:17:19;11.10;57.20
21540;DHT22;10931;52.164;5.518;2022-12-18T16:20:30;11.10;57.20
21540;DHT22;10931;52.164;5.518;2022-12-18T16:23:11;11.10;57.30
21540;DHT22;10931;52.164;5.518;2022-12-18T16:25:53;11.10;57.30
21540;DHT22;10931;52.164;5.518;2022-12-18T16:28:21;11.10;57.90
21540;DHT22;10931;52.164;5.518;2022-12-18T16:34:39;11.10;57.20
21540;DHT22;10931;52.164;5.518;2022-12-18T16:57:39;11.10;57.30
21540;DHT22;10931;52.164;5.518;2022-12-18T17:00:42;11.00;57.20
21540;DHT22;10931;52.164;5.518;2022-12-18T17:03:33;11.00;57.30
21540;DHT22;10931;52.164;5.518;2022-12-18T17:06:11;11.00;57.30
21540;DHT22;10931;52.164;5.518;2022-12-18T17:09:07;11.00;57.30
21540;DHT22;10931;52.164;5.518;2022-12-18T17:12:01;11.00;57.30
21540;DHT22;10931;52.164;5.518;2022-12-18T17:14:43;11.00;57.30
21540;DHT22;10931;52.164;5.518;2022-12-18T17:17:21;11.00;57.30
21540;DHT22;10931;52.164;5.518;2022-12-18T17:23:01;11.00;57.30
21540;DHT22;10931;52.164;5.518;2022-12-18T17:25:56;11.00;57.30
21540;DHT22;10931;52.164;5.518;2022-12-18T17:31:50;11.00;57.30
21540;DHT22;10931;52.164;5.518;2022-12-18T17:34:21;11.00;57.30
21540;DHT22;10931;52.164;5.518;2022-12-18T17:36:53;11.00;57.30
21540;DHT22;10931;52.164;5.518;2022-12-18T17:39:21;11.00;57.30
21540;DHT22;10931;52.164;5.518;2022-12-18T17:41:47;11.00;57.30
21540;DHT22;10931;52.164;5.518;2022-12-18T17:44:23;11.00;57.30
21540;DHT22;10931;52.164;5.518;2022-12-18T17:46:49;11.00;57.90
21540;DHT22;10931;52.164;5.518;2022-12-18T17:49:19;11.00;57.30
21540;DHT22;10931;52.164;5.518;2022-12-18T17:51:47;11.00;57.30
21540;DHT22;10931;52.164;5.518;2022-12-18T17:54:21;11.00;57.30
21540;DHT22;10931;52.164;5.518;2022-12-18T17:56:47;11.10;57.30
21540;DHT22;10931;52.164;5.518;2022-12-18T17:59:13;11.10;57.30
21540;DHT22;10931;52.164;5.518;2022-12-18T18:01:40;11.00;57.30
21540;DHT22;10931;52.164;5.518;2022-12-18T18:04:14;11.00;57.30
21540;DHT22;10931;52.164;5.518;2022-12-18T18:06:40;11.00;57.30
21540;DHT22;10931;52.164;5.518;2022-12-18T18:09:08;11.00;57.30
21540;DHT22;10931;52.164;5.518;2022-12-18T18:11:34;11.00;57.30
21540;DHT22;10931;52.164;5.518;2022-12-18T18:14:22;11.00;57.30
21540;DHT22;10931;52.164;5.518;2022-12-18T18:16:49;11.00;57.30
21540;DHT22;10931;52.164;5.518;2022-12-18T18:19:22;11.00;57.30
21540;DHT22;10931;52.164;5.518;2022-12-18T18:21:52;11.00;57.30
21540;DHT22;10931;52.164;5.518;2022-12-18T18:24:26;11.00;57.30
21540;DHT22;10931;52.164;5.518;2022-12-18T18:26:56;11.00;57.30
21540;DHT22;10931;52.164;5.518;2022-12-18T18:29:28;11.00;57.30
21540;DHT22;10931;52.164;5.518;2022-12-18T18:31:55;11.00;57.30
21540;DHT22;10931;52.164;5.518;2022-12-18T18:34:24;11.00;57.30
21540;DHT22;10931;52.164;5.518;2022-12-18T18:36:51;11.00;57.30
21540;DHT22;10931;52.164;5.518;2022-12-18T18:39:17;11.00;57.30
21540;DHT22;10931;52.164;5.518;2022-12-18T18:41:46;11.00;57.30
21540;DHT22;10931;52.164;5.518;2022-12-18T18:44:20;11.00;57.30
21540;DHT22;10931;52.164;5.518;2022-12-18T18:46:52;11.00;57.30
21540;DHT22;10931;52.164;5.518;2022-12-18T18:49:19;11.00;57.30
21540;DHT22;10931;52.164;5.518;2022-12-18T18:51:45;11.00;57.30
21540;DHT22;10931;52.164;5.518;2022-12-18T18:54:10;11.00;57.30
21540;DHT22;10931;52.164;5.518;2022-12-18T18:56:39;11.00;57.40
21540;DHT22;10931;52.164;5.518;2022-12-18T18:59:09;11.00;57.40
21540;DHT22;10931;52.164;5.518;2022-12-18T19:01:40;11.00;57.30
21540;DHT22;10931;52.164;5.518;2022-12-18T19:04:16;11.00;57.30
21540;DHT22;10931;52.164;5.518;2022-12-18T19:06:42;11.00;57.40
21540;DHT22;10931;52.164;5.518;2022-12-18T19:09:08;11.00;57.30
21540;DHT22;10931;52.164;5.518;2022-12-18T19:11:43;11.00;57.40
21540;DHT22;10931;52.164;5.518;2022-12-18T19:14:27;11.00;57.40
21540;DHT22;10931;52.164;5.518;2022-12-18T19:17:29;11.00;57.30
21540;DHT22;10931;52.164;5.518;2022-12-18T19:20:03;11.00;57.40
21540;DHT22;10931;52.164;5.518;2022-12-18T19:25:53;10.90;57.40
21540;DHT22;10931;52.164;5.518;2022-12-18T19:29:04;11.00;57.40
21540;DHT22;10931;52.164;5.518;2022-12-18T19:32:05;11.00;57.30
21540;DHT22;10931;52.164;5.518;2022-12-18T19:37:25;11.00;57.40
21540;DHT22;10931;52.164;5.518;2022-12-18T19:40:09;11.00;57.40
21540;DHT22;10931;52.164;5.518;2022-12-18T19:43:13;11.00;57.40
21540;DHT22;10931;52.164;5.518;2022-12-18T19:49:11;11.00;57.40
21540;DHT22;10931;52.164;5.518;2022-12-18T19:52:35;11.00;57.40
21540;DHT22;10931;52.164;5.518;2022-12-18T19:55:26;11.00;57.40
21540;DHT22;10931;52.164;5.518;2022-12-18T19:57:58;11.00;57.50
21540;DHT22;10931;52.164;5.518;2022-12-18T20:09:30;10.90;57.40
21540;DHT22;10931;52.164;5.518;2022-12-18T20:18:44;10.90;57.40
21540;DHT22;10931;52.164;5.518;2022-12-18T20:24:13;10.90;57.40
21540;DHT22;10931;52.164;5.518;2022-12-18T20:26:55;10.90;57.40
21540;DHT22;10931;52.164;5.518;2022-12-18T22:47:58;10.90;57.70
21540;DHT22;10931;52.164;5.518;2022-12-18T22:50:29;10.90;57.70
21540;DHT22;10931;52.164;5.518;2022-12-18T22:53:23;10.90;57.70
21540;DHT22;10931;52.164;5.518;2022-12-18T22:56:28;10.90;57.70
21540;DHT22;10931;52.164;5.518;2022-12-18T23:04:03;10.90;57.80
21540;DHT22;10931;52.164;5.518;2022-12-18T23:16:17;10.90;57.70
21540;DHT22;10931;52.164;5.518;2022-12-18T23:19:33;10.90;57.80
21540;DHT22;10931;52.164;5.518;2022-12-18T23:47:51;10.90;57.90
21540;DHT22;10931;52.164;5.518;2022-12-18T23:56:14;10.90;57.90
